createdAt,value
2022-09-10T04:02:33.491Z,96.62
2022-09-10T04:06:45.219Z,96.22
2022-09-10T04:11:02.439Z,96.52
2022-09-10T04:15:15.321Z,96.32
2022-09-10T04:19:28.129Z,96.35
2022-09-10T04:23:41.229Z,96.20
2022-09-10T04:27:53.509Z,96.44
2022-09-10T04:32:05.492Z,95.89
2022-09-10T04:36:18.576Z,96.75
2022-09-10T04:40:30.172Z,96.18
2022-09-10T04:44:41.785Z,95.92
2022-09-10T04:48:54.213Z,96.71
2022-09-10T04:53:08.087Z,95.79
2022-09-10T04:57:22.067Z,95.65
2022-09-10T05:01:34.782Z,95.85
2022-09-10T05:05:47.798Z,96.20
2022-09-10T05:09:59.360Z,95.25
2022-09-10T05:14:10.912Z,96.10
2022-09-10T05:18:22.529Z,95.71
2022-09-10T05:22:40.289Z,96.03
2022-09-10T05:26:52.669Z,95.83
2022-09-10T05:31:05.732Z,95.89
2022-09-10T05:35:18.404Z,94.86
2022-09-10T05:39:31.474Z,94.94
2022-09-10T05:43:43.088Z,94.52
2022-09-10T05:47:55.772Z,94.77
2022-09-10T05:52:08.395Z,94.25
2022-09-10T05:56:20.559Z,94.75
2022-09-10T06:00:32.249Z,95.39
2022-09-10T06:04:46.114Z,95.12
2022-09-10T06:08:58.822Z,95.74
2022-09-10T06:13:22.573Z,95.24
2022-09-10T06:17:36.137Z,94.84
2022-09-10T06:21:50.590Z,94.11
2022-09-10T06:26:04.504Z,94.37
2022-09-10T06:30:20.331Z,93.71
2022-09-10T06:34:32.855Z,93.19
2022-09-10T06:38:45.083Z,93.13
2022-09-10T06:43:01.535Z,91.66
2022-09-10T06:48:36.772Z,92.28
2022-09-10T06:52:05.331Z,92.04
2022-09-10T06:56:18.479Z,91.61
2022-09-10T07:00:32.105Z,91.53
2022-09-10T07:04:45.236Z,90.44
2022-09-10T07:08:57.796Z,90.13
2022-09-10T07:13:13.069Z,89.58
2022-09-10T07:17:29.865Z,88.63
2022-09-10T07:21:43.634Z,88.52
2022-09-10T07:26:03.769Z,87.69
2022-09-10T07:30:28.817Z,87.87
2022-09-10T07:34:40.414Z,87.62
2022-09-10T07:38:54.259Z,87.77
2022-09-10T07:43:06.980Z,88.51
2022-09-10T07:47:18.903Z,88.92
2022-09-10T07:51:32.826Z,89.65
2022-09-10T07:55:46.222Z,89.10
2022-09-10T08:00:00.556Z,89.33
2022-09-10T08:04:26.632Z,88.91
2022-09-10T08:08:39.850Z,89.19
2022-09-10T08:12:54.711Z,88.94
2022-09-10T08:17:08.085Z,89.18
2022-09-10T08:21:25.720Z,89.53
2022-09-10T08:25:37.994Z,89.97
2022-09-10T08:29:50.036Z,90.34
2022-09-10T08:34:01.674Z,90.31
2022-09-10T08:38:13.333Z,89.49
2022-09-10T08:42:32.164Z,89.52
2022-09-10T08:46:48.635Z,87.01
2022-09-10T08:51:27.596Z,86.25
2022-09-10T08:55:45.059Z,85.64
2022-09-10T09:00:01.630Z,85.16
2022-09-10T09:04:28.722Z,85.92
2022-09-10T09:08:48.834Z,85.68
2022-09-10T09:13:29.095Z,85.78
2022-09-10T09:17:56.072Z,86.33
2022-09-10T09:22:21.192Z,85.03
2022-09-10T09:26:36.586Z,85.74
2022-09-10T09:30:51.277Z,86.43
2022-09-10T09:35:19.861Z,88.07
2022-09-10T09:39:38.718Z,88.05
2022-09-10T09:44:00.391Z,88.93
2022-09-10T09:48:15.743Z,89.60
2022-09-10T09:52:31.189Z,88.59
2022-09-10T09:56:45.897Z,87.73
2022-09-10T10:01:03.501Z,88.28
2022-09-10T10:05:25.492Z,88.53
2022-09-10T10:09:43.922Z,88.20
2022-09-10T10:14:12.155Z,88.21
2022-09-10T10:18:31.682Z,88.01
2022-09-10T10:22:48.632Z,89.45
2022-09-10T10:27:00.501Z,89.85
2022-09-10T10:31:13.149Z,89.92
2022-09-10T10:35:49.001Z,89.86
2022-09-10T10:40:31.996Z,90.56
2022-09-10T10:45:00.412Z,90.76
2022-09-10T10:49:21.238Z,91.10
2022-09-10T10:54:00.022Z,91.57
2022-09-10T10:58:36.157Z,91.92
2022-09-10T11:02:54.533Z,91.20
2022-09-10T11:07:14.491Z,90.23
2022-09-10T11:11:37.217Z,91.18
2022-09-10T11:16:01.216Z,90.85
2022-09-10T11:20:28.311Z,90.36
2022-09-10T11:25:17.017Z,91.14
2022-09-10T11:29:41.408Z,90.38
2022-09-10T11:34:34.768Z,90.64
2022-09-10T11:39:00.822Z,90.68
2022-09-10T11:43:29.083Z,89.92
2022-09-10T11:47:44.637Z,89.79
2022-09-10T11:51:56.911Z,90.98
2022-09-10T11:56:33.235Z,91.13
2022-09-10T12:01:32.753Z,91.33
2022-09-10T12:05:54.777Z,92.17
2022-09-10T12:10:25.117Z,90.92
2022-09-10T12:14:39.522Z,90.71
2022-09-10T12:18:54.201Z,90.70
2022-09-10T12:23:06.512Z,90.30
2022-09-10T12:27:20.159Z,89.26
2022-09-10T12:32:09.735Z,90.17
2022-09-10T12:36:27.339Z,89.99
2022-09-10T12:40:45.258Z,91.51
2022-09-10T12:44:57.204Z,90.34
2022-09-10T12:49:13.941Z,90.03
2022-09-10T12:53:50.335Z,88.91
2022-09-10T12:58:12.602Z,88.25
2022-09-10T13:02:35.314Z,87.47
2022-09-10T13:06:50.151Z,87.22
2022-09-10T13:11:07.652Z,86.04
2022-09-10T13:15:22.704Z,86.44
2022-09-10T13:19:34.143Z,84.78
2022-09-10T13:23:47.869Z,84.37
2022-09-10T13:27:59.415Z,84.45
2022-09-10T13:32:19.819Z,84.84
2022-09-10T13:37:01.568Z,84.18
2022-09-10T13:41:13.026Z,86.26
2022-09-10T13:45:29.361Z,87.36
2022-09-10T13:50:10.247Z,88.08
2022-09-10T13:54:35.756Z,88.82
2022-09-10T13:58:50.445Z,89.15
2022-09-10T14:03:02.122Z,88.64
2022-09-10T14:07:20.689Z,86.17
2022-09-10T14:11:41.180Z,86.91
2022-09-10T14:15:54.547Z,86.86
2022-09-10T14:20:28.668Z,86.88
2022-09-10T14:25:02.596Z,88.19
2022-09-10T14:29:25.029Z,88.49
2022-09-10T14:33:36.650Z,88.71
2022-09-10T14:37:48.324Z,88.16
2022-09-10T14:42:23.442Z,88.96
2022-09-10T14:46:49.283Z,90.04
2022-09-10T14:51:24.454Z,91.31
2022-09-10T14:55:36.569Z,90.56
2022-09-10T14:59:48.093Z,90.79
2022-09-10T15:03:59.835Z,91.44
2022-09-10T15:08:11.369Z,90.78
2022-09-10T15:12:28.316Z,91.71
2022-09-10T15:16:39.865Z,90.27
2022-09-10T15:20:51.435Z,89.11
2022-09-10T15:25:10.138Z,88.95
2022-09-10T15:29:23.337Z,88.92
2022-09-10T15:33:34.879Z,88.44
2022-09-10T15:37:46.547Z,89.19
2022-09-10T15:41:59.845Z,89.96
2022-09-10T15:46:13.039Z,90.05
2022-09-10T15:50:24.621Z,89.48
2022-09-10T15:54:36.121Z,89.68
2022-09-10T15:58:49.753Z,88.29
2022-09-10T16:03:01.761Z,87.83
2022-09-10T16:07:14.329Z,87.29
2022-09-10T16:11:25.818Z,86.90
2022-09-10T16:15:38.154Z,86.05
2022-09-10T16:19:51.272Z,86.70
2022-09-10T16:24:03.867Z,87.33
2022-09-10T16:28:15.347Z,86.64
2022-09-10T16:32:26.855Z,86.11
2022-09-10T16:36:39.453Z,86.13
2022-09-10T16:41:00.087Z,84.90
2022-09-10T16:45:11.587Z,85.19
2022-09-10T16:49:23.355Z,86.68
2022-09-10T16:53:36.604Z,86.08
2022-09-10T16:57:48.126Z,86.77
2022-09-10T17:02:00.552Z,87.98
2022-09-10T17:06:31.555Z,87.12
2022-09-10T17:10:43.224Z,88.09
2022-09-10T17:14:54.719Z,88.56
2022-09-10T17:19:09.656Z,88.17
2022-09-10T17:23:21.179Z,88.58
2022-09-10T17:27:33.146Z,88.45
2022-09-10T17:31:46.529Z,88.29
2022-09-10T17:36:00.635Z,88.55
2022-09-10T17:40:12.917Z,88.10
2022-09-10T17:44:25.650Z,89.05
2022-09-10T17:48:37.979Z,89.33
2022-09-10T17:52:50.130Z,89.19
2022-09-10T17:57:01.645Z,88.43
2022-09-10T18:01:25.150Z,89.19
2022-09-10T18:05:38.323Z,89.15
2022-09-10T18:09:49.831Z,89.44
2022-09-10T18:14:01.524Z,89.52
2022-09-10T18:18:13.544Z,90.17
2022-09-10T18:22:27.377Z,89.89
2022-09-10T18:26:42.616Z,90.31
2022-09-10T18:30:54.163Z,90.76
2022-09-10T18:35:06.611Z,90.89
2022-09-10T18:39:18.156Z,91.31
2022-09-10T18:43:33.957Z,92.13
2022-09-10T18:47:47.749Z,92.53
2022-09-10T18:51:59.346Z,92.89
2022-09-10T18:56:18.073Z,93.91
2022-09-10T19:00:30.535Z,94.15
2022-09-10T19:05:07.483Z,93.96
2022-09-10T19:09:30.400Z,94.36
2022-09-10T19:13:42.072Z,94.51
2022-09-10T19:17:53.817Z,95.61
2022-09-10T19:22:10.463Z,94.63
2022-09-10T19:26:23.472Z,94.91
2022-09-10T19:30:37.888Z,95.03
2022-09-10T19:34:50.955Z,95.12
2022-09-10T19:39:06.201Z,95.34
2022-09-10T19:43:17.940Z,95.52
2022-09-10T19:47:29.476Z,95.79
2022-09-10T19:51:41.639Z,95.97
2022-09-10T19:55:53.195Z,95.60
2022-09-10T20:00:06.799Z,95.98
2022-09-10T20:04:24.192Z,95.81
2022-09-10T20:08:35.894Z,96.25
2022-09-10T20:12:47.389Z,96.33
2022-09-10T20:16:59.282Z,95.92
2022-09-10T20:21:16.842Z,96.63
2022-09-10T20:25:28.661Z,97.06
2022-09-10T20:29:41.897Z,97.25
2022-09-10T20:33:59.609Z,97.71
2022-09-10T20:38:11.210Z,97.29
2022-09-10T20:42:25.295Z,97.56
2022-09-10T20:46:37.943Z,97.69
2022-09-10T20:50:58.410Z,97.90
2022-09-10T20:55:09.939Z,97.91
2022-09-10T20:59:26.882Z,98.07
2022-09-10T21:03:43.436Z,98.03
2022-09-10T21:07:55.879Z,97.74
2022-09-10T21:12:07.531Z,98.43
2022-09-10T21:16:23.103Z,97.76
2022-09-10T21:20:34.632Z,97.41
2022-09-10T21:24:46.155Z,97.84
2022-09-10T21:29:00.099Z,97.85
